Wetterdaten: Woche 18.04.16 - 24.04.16 (KW16)
Datum Zeit Temp. A. Feuchte A. Luftdruck Regen Wind Richtung Taupunkt Windchill Windben
18.04.2016 00:00 13,0 C 80 % 1012,5 hPa 0,0 l/m 4,1 km/h N 9,6 C 13,0 C 12,5 km/h
18.04.2016 01:00 12,3 C 82 % 1012,9 hPa 0,5 l/m 3,8 km/h N 9,3 C 12,3 C 11,3 km/h
18.04.2016 02:00 11,6 C 82 % 1013,2 hPa 1,0 l/m 4,9 km/h N 8,7 C 11,5 C 13,7 km/h
18.04.2016 03:00 11,3 C 82 % 1013,9 hPa 0,8 l/m 6,2 km/h N 8,3 C 11,0 C 16,1 km/h
18.04.2016 04:00 11,1 C 82 % 1014,3 hPa 0,0 l/m 6,7 km/h N 8,2 C 10,8 C 17,3 km/h
18.04.2016 05:00 10,6 C 83 % 1014,8 hPa 0,3 l/m 5,4 km/h N 7,7 C 10,6 C 14,1 km/h
18.04.2016 06:00 9,7 C 83 % 1015,3 hPa 0,5 l/m 5,3 km/h N 6,9 C 9,6 C 13,3 km/h
18.04.2016 07:00 9,3 C 83 % 1015,8 hPa 0,0 l/m 5,8 km/h N 6,5 C 9,3 C 14,9 km/h
18.04.2016 08:00 9,4 C 83 % 1016,9 hPa 0,3 l/m 5,7 km/h N 6,7 C 9,4 C 16,1 km/h
18.04.2016 09:00 9,4 C 83 % 1017,6 hPa 0,8 l/m 4,1 km/h N 6,7 C 9,4 C 11,3 km/h
18.04.2016 10:00 9,4 C 83 % 1018,2 hPa 0,5 l/m 5,2 km/h N 6,6 C 9,4 C 13,7 km/h
18.04.2016 11:00 9,4 C 83 % 1018,5 hPa 0,3 l/m 5,3 km/h N 6,6 C 9,3 C 12,5 km/h
18.04.2016 12:00 9,7 C 83 % 1018,5 hPa 0,0 l/m 4,9 km/h N 7,0 C 9,7 C 12,1 km/h
18.04.2016 13:00 10,1 C 83 % 1018,4 hPa 0,3 l/m 3,3 km/h N 7,3 C 10,1 C 10,1 km/h
18.04.2016 14:00 10,5 C 82 % 1018,5 hPa 0,0 l/m 4,1 km/h N 7,5 C 10,5 C 12,1 km/h
18.04.2016 15:00 10,9 C 81 % 1018,1 hPa 0,0 l/m 4,3 km/h N 7,6 C 10,9 C 11,7 km/h
18.04.2016 16:00 11,2 C 79 % 1017,9 hPa 0,0 l/m 4,4 km/h N 7,7 C 11,2 C 12,9 km/h
18.04.2016 17:00 11,7 C 77 % 1017,6 hPa 0,0 l/m 3,3 km/h N 7,7 C 11,7 C 10,1 km/h
18.04.2016 18:00 11,2 C 79 % 1017,6 hPa 0,0 l/m 2,7 km/h N 7,6 C 11,2 C 9,7 km/h
18.04.2016 19:00 10,8 C 81 % 1017,7 hPa 0,3 l/m 1,8 km/h N 7,6 C 10,8 C 6,8 km/h
18.04.2016 20:00 10,4 C 82 % 1018,3 hPa 0,0 l/m 1,0 km/h N 7,5 C 10,4 C 7,2 km/h
18.04.2016 21:00 10,2 C 82 % 1019,0 hPa 0,0 l/m 1,8 km/h N 7,2 C 10,2 C 8,9 km/h
18.04.2016 22:00 10,1 C 81 % 1019,2 hPa 0,0 l/m 1,4 km/h N 7,0 C 10,1 C 8,4 km/h
18.04.2016 23:00 10,1 C 80 % 1019,7 hPa 0,0 l/m 3,6 km/h N 6,8 C 10,1 C 12,1 km/h
19.04.2016 00:00 10,3 C 78 % 1020,1 hPa 0,0 l/m 3,9 km/h N 6,7 C 10,3 C 11,7 km/h
19.04.2016 01:00 10,2 C 79 % 1020,3 hPa 0,0 l/m 5,0 km/h N 6,7 C 10,0 C 13,7 km/h
19.04.2016 02:00 10,0 C 79 % 1020,4 hPa 0,0 l/m 6,5 km/h N 6,5 C 9,7 C 16,1 km/h
19.04.2016 03:00 9,6 C 79 % 1020,5 hPa 0,0 l/m 3,2 km/h N 6,2 C 9,6 C 10,5 km/h
19.04.2016 04:00 9,3 C 79 % 1020,5 hPa 0,0 l/m 3,1 km/h N 5,9 C 9,3 C 10,5 km/h
19.04.2016 05:00 9,0 C 80 % 1020,8 hPa 0,0 l/m 4,3 km/h N 5,7 C 9,0 C 10,9 km/h
19.04.2016 06:00 8,6 C 81 % 1021,3 hPa 0,0 l/m 2,8 km/h N 5,6 C 8,6 C 8,4 km/h
19.04.2016 07:00 9,2 C 82 % 1021,5 hPa 0,0 l/m 5,1 km/h N 6,2 C 9,2 C 12,9 km/h
19.04.2016 08:00 10,7 C 78 % 1021,9 hPa 0,0 l/m 5,9 km/h N 7,0 C 10,6 C 15,3 km/h
19.04.2016 09:00 11,7 C 74 % 1021,8 hPa 0,0 l/m 8,4 km/h N 7,2 C 10,4 C 20,1 km/h
19.04.2016 10:00 12,9 C 63 % 1021,6 hPa 0,0 l/m 10,2 km/h N 5,9 C 10,7 C 24,9 km/h
19.04.2016 11:00 13,5 C 51 % 1021,4 hPa 0,0 l/m 11,9 km/h N 3,6 C 10,7 C 28,2 km/h
19.04.2016 12:00 14,1 C 49 % 1021,1 hPa 0,0 l/m 11,2 km/h N 3,6 C 11,6 C 26,6 km/h
19.04.2016 13:00 14,1 C 51 % 1020,9 hPa 0,0 l/m 9,8 km/h N 4,1 C 12,2 C 24,5 km/h
19.04.2016 14:00 14,6 C 50 % 1020,4 hPa 0,0 l/m 9,6 km/h N 4,3 C 12,9 C 22,9 km/h
19.04.2016 15:00 14,8 C 48 % 1019,9 hPa 0,0 l/m 11,8 km/h N 3,7 C 12,1 C 28,2 km/h
19.04.2016 16:00 15,0 C 46 % 1019,7 hPa 0,0 l/m 13,3 km/h N 3,4 C 11,8 C 28,9 km/h
19.04.2016 17:00 14,1 C 48 % 1020,0 hPa 0,0 l/m 13,0 km/h N 3,2 C 10,9 C 27,8 km/h
19.04.2016 18:00 13,3 C 51 % 1020,5 hPa 0,0 l/m 9,7 km/h N 3,3 C 11,4 C 22,1 km/h
19.04.2016 19:00 12,8 C 52 % 1020,9 hPa 0,0 l/m 9,0 km/h N 3,2 C 11,3 C 19,7 km/h
19.04.2016 20:00 12,1 C 52 % 1021,5 hPa 0,0 l/m 9,6 km/h N 2,6 C 10,2 C 24,9 km/h
19.04.2016 21:00 11,8 C 51 % 1022,0 hPa 0,0 l/m 9,4 km/h N 2,1 C 9,9 C 22,5 km/h
19.04.2016 22:00 11,6 C 52 % 1022,5 hPa 0,0 l/m 8,1 km/h N 2,1 C 10,5 C 19,7 km/h
19.04.2016 23:00 11,5 C 53 % 1022,8 hPa 0,0 l/m 8,2 km/h N 2,1 C 10,3 C 20,5 km/h
20.04.2016 00:00 11,3 C 54 % 1023,0 hPa 0,0 l/m 6,9 km/h N 2,2 C 10,9 C 18,9 km/h
20.04.2016 01:00 11,1 C 54 % 1023,1 hPa 0,0 l/m 8,6 km/h N 2,2 C 9,6 C 23,3 km/h
20.04.2016 02:00 10,8 C 56 % 1023,3 hPa 0,0 l/m 9,0 km/h N 2,3 C 9,1 C 24,5 km/h
20.04.2016 03:00 10,3 C 58 % 1023,6 hPa 0,0 l/m 7,7 km/h N 2,4 C 9,4 C 20,1 km/h
20.04.2016 04:00 9,7 C 61 % 1023,7 hPa 0,0 l/m 7,9 km/h N 2,4 C 8,6 C 20,1 km/h
20.04.2016 05:00 8,8 C 64 % 1024,3 hPa 0,0 l/m 7,2 km/h N 2,3 C 7,9 C 20,1 km/h
20.04.2016 06:00 8,1 C 67 % 1025,0 hPa 0,0 l/m 5,0 km/h N 2,3 C 8,1 C 13,7 km/h
20.04.2016 07:00 8,6 C 65 % 1025,7 hPa 0,0 l/m 7,8 km/h N 2,5 C 7,5 C 22,9 km/h
20.04.2016 08:00 9,1 C 62 % 1026,3 hPa 0,0 l/m 9,2 km/h N 2,2 C 7,2 C 22,5 km/h
20.04.2016 09:00 9,8 C 58 % 1026,4 hPa 0,0 l/m 11,9 km/h N 1,9 C 6,4 C 26,6 km/h
20.04.2016 10:00 10,8 C 56 % 1026,5 hPa 0,0 l/m 13,7 km/h N 2,4 C 6,6 C 29,0 km/h
20.04.2016 11:00 11,9 C 56 % 1026,7 hPa 0,0 l/m 10,8 km/h N 3,2 C 9,2 C 25,4 km/h
20.04.2016 12:00 12,9 C 50 % 1026,5 hPa 0,0 l/m 13,1 km/h N 2,7 C 9,4 C 29,8 km/h
20.04.2016 13:00 13,7 C 46 % 1026,4 hPa 0,0 l/m 10,9 km/h N 2,2 C 11,3 C 24,5 km/h
20.04.2016 14:00 14,2 C 42 % 1026,3 hPa 0,0 l/m 11,4 km/h N 1,3 C 11,7 C 29,3 km/h
20.04.2016 15:00 14,5 C 39 % 1025,9 hPa 0,0 l/m 10,5 km/h N 0,6 C 12,4 C 25,3 km/h
20.04.2016 16:00 14,9 C 38 % 1025,6 hPa 0,0 l/m 8,6 km/h N 0,6 C 13,6 C 24,1 km/h
20.04.2016 17:00 14,9 C 38 % 1025,6 hPa 0,0 l/m 7,1 km/h N 0,7 C 14,5 C 20,1 km/h
20.04.2016 18:00 14,5 C 38 % 1025,7 hPa 0,0 l/m 5,0 km/h N 0,3 C 14,5 C 14,1 km/h
20.04.2016 19:00 13,5 C 40 % 1025,8 hPa 0,0 l/m 1,6 km/h N -0,0 C 13,5 C 8,4 km/h
20.04.2016 20:00 11,4 C 48 % 1026,4 hPa 0,0 l/m 0,0 km/h N 0,7 C 11,4 C 0,0 km/h
20.04.2016 21:00 8,6 C 58 % 1027,1 hPa 0,0 l/m 0,0 km/h N 0,9 C 8,6 C 1,2 km/h
20.04.2016 22:00 7,0 C 65 % 1027,4 hPa 0,0 l/m 0,0 km/h N 0,8 C 7,0 C 0,0 km/h
20.04.2016 23:00 5,5 C 72 % 1027,8 hPa 0,0 l/m 0,0 km/h N 0,7 C 5,5 C 0,0 km/h
21.04.2016 00:00 4,7 C 74 % 1028,2 hPa 0,0 l/m 0,0 km/h N 0,4 C 4,7 C 0,0 km/h
21.04.2016 01:00 4,1 C 76 % 1028,3 hPa 0,0 l/m 0,0 km/h N 0,2 C 4,1 C 0,0 km/h
21.04.2016 02:00 4,1 C 76 % 1028,0 hPa 0,0 l/m 0,0 km/h N 0,3 C 4,1 C 1,6 km/h
21.04.2016 03:00 3,7 C 76 % 1027,5 hPa 0,0 l/m 0,0 km/h N -0,1 C 3,7 C 0,8 km/h
21.04.2016 04:00 3,3 C 78 % 1027,4 hPa 0,0 l/m 0,0 km/h N -0,1 C 3,3 C 1,2 km/h
21.04.2016 05:00 2,5 C 79 % 1027,2 hPa 0,0 l/m 0,0 km/h N -0,7 C 2,5 C 0,8 km/h
21.04.2016 06:00 2,0 C 81 % 1027,1 hPa 0,0 l/m 0,0 km/h N -1,0 C 2,0 C 0,4 km/h
21.04.2016 07:00 3,0 C 82 % 1027,2 hPa 0,0 l/m 0,0 km/h N 0,2 C 3,0 C 0,4 km/h
21.04.2016 08:00 6,3 C 78 % 1027,0 hPa 0,0 l/m 0,1 km/h N 2,7 C 6,3 C 2,8 km/h
21.04.2016 09:00 10,6 C 65 % 1026,7 hPa 0,0 l/m 0,4 km/h N 4,3 C 10,6 C 4,8 km/h
21.04.2016 10:00 12,8 C 58 % 1026,4 hPa 0,0 l/m 1,0 km/h N 4,8 C 12,8 C 6,8 km/h
21.04.2016 11:00 14,7 C 53 % 1026,1 hPa 0,0 l/m 0,9 km/h N 5,2 C 14,7 C 7,2 km/h
21.04.2016 12:00 16,3 C 50 % 1025,4 hPa 0,0 l/m 1,1 km/h N 6,0 C 16,3 C 7,6 km/h
21.04.2016 13:00 17,3 C 50 % 1024,6 hPa 0,0 l/m 1,4 km/h N 6,6 C 17,3 C 7,6 km/h
21.04.2016 14:00 17,3 C 47 % 1023,7 hPa 0,0 l/m 1,5 km/h N 5,9 C 17,3 C 8,4 km/h
21.04.2016 15:00 17,1 C 48 % 1022,8 hPa 0,0 l/m 1,3 km/h N 6,0 C 17,1 C 7,2 km/h
21.04.2016 16:00 17,0 C 49 % 1022,0 hPa 0,0 l/m 1,3 km/h N 6,1 C 17,0 C 7,6 km/h
21.04.2016 17:00 17,0 C 50 % 1021,2 hPa 0,0 l/m 0,4 km/h N 6,5 C 17,0 C 5,6 km/h
21.04.2016 18:00 16,8 C 50 % 1020,3 hPa 0,0 l/m 0,2 km/h N 6,2 C 16,8 C 2,8 km/h
21.04.2016 19:00 16,2 C 53 % 1019,5 hPa 0,0 l/m 0,0 km/h N 6,5 C 16,2 C 1,6 km/h
21.04.2016 20:00 14,0 C 57 % 1019,0 hPa 0,0 l/m 0,0 km/h N 5,5 C 14,0 C 0,0 km/h
21.04.2016 21:00 11,3 C 67 % 1018,7 hPa 0,0 l/m 0,0 km/h N 5,4 C 11,3 C 0,0 km/h
21.04.2016 22:00 9,2 C 75 % 1018,0 hPa 0,0 l/m 0,0 km/h N 5,0 C 9,2 C 0,0 km/h
21.04.2016 23:00 7,9 C 78 % 1017,4 hPa 0,0 l/m 0,0 km/h N 4,3 C 7,9 C 0,0 km/h
22.04.2016 00:00 6,8 C 81 % 1016,9 hPa 0,0 l/m 0,0 km/h N 3,8 C 6,8 C 0,0 km/h
22.04.2016 01:00 6,1 C 82 % 1016,4 hPa 0,0 l/m 0,0 km/h N 3,2 C 6,1 C 0,0 km/h
22.04.2016 02:00 5,5 C 83 % 1015,8 hPa 0,0 l/m 0,0 km/h N 2,9 C 5,5 C 0,0 km/h
22.04.2016 03:00 5,3 C 83 % 1015,4 hPa 0,0 l/m 0,1 km/h N 2,7 C 5,3 C 0,8 km/h
22.04.2016 04:00 5,4 C 83 % 1015,3 hPa 0,0 l/m 0,1 km/h N 2,8 C 5,4 C 2,8 km/h
22.04.2016 05:00 4,8 C 83 % 1015,3 hPa 0,0 l/m 0,0 km/h N 2,1 C 4,8 C 0,0 km/h
22.04.2016 06:00 4,6 C 83 % 1015,5 hPa 0,0 l/m 0,4 km/h N 1,9 C 4,6 C 2,4 km/h
22.04.2016 07:00 8,0 C 81 % 1015,5 hPa 0,0 l/m 1,3 km/h N 4,9 C 8,0 C 8,1 km/h
22.04.2016 08:00 12,8 C 62 % 1015,3 hPa 0,0 l/m 4,5 km/h N 5,5 C 12,8 C 13,7 km/h
22.04.2016 09:00 15,1 C 54 % 1015,2 hPa 0,0 l/m 3,8 km/h N 6,0 C 15,1 C 12,1 km/h
22.04.2016 10:00 16,8 C 51 % 1015,1 hPa 0,0 l/m 4,2 km/h N 6,4 C 16,8 C 14,9 km/h
22.04.2016 11:00 18,0 C 48 % 1014,8 hPa 0,0 l/m 4,9 km/h N 6,6 C 18,0 C 14,5 km/h
22.04.2016 12:00 18,8 C 45 % 1014,4 hPa 0,0 l/m 5,0 km/h N 6,6 C 18,8 C 14,5 km/h
22.04.2016 13:00 19,0 C 43 % 1014,0 hPa 0,0 l/m 7,5 km/h N 6,1 C 18,6 C 19,3 km/h
22.04.2016 14:00 19,7 C 45 % 1013,4 hPa 0,0 l/m 7,0 km/h N 7,2 C 19,4 C 20,9 km/h
22.04.2016 15:00 19,8 C 46 % 1012,5 hPa 0,0 l/m 7,4 km/h N 7,7 C 19,4 C 18,1 km/h
22.04.2016 16:00 20,0 C 44 % 1011,8 hPa 0,0 l/m 6,4 km/h N 7,4 C 19,7 C 18,5 km/h
22.04.2016 17:00 19,8 C 43 % 1011,3 hPa 0,0 l/m 6,0 km/h N 6,8 C 19,7 C 16,9 km/h
22.04.2016 18:00 19,0 C 45 % 1010,8 hPa 0,0 l/m 2,9 km/h N 6,7 C 19,0 C 12,1 km/h
22.04.2016 19:00 18,1 C 44 % 1010,7 hPa 0,0 l/m 2,0 km/h N 5,7 C 18,1 C 9,6 km/h
22.04.2016 20:00 16,2 C 51 % 1011,3 hPa 0,0 l/m 0,3 km/h N 6,1 C 16,2 C 5,2 km/h
22.04.2016 21:00 13,9 C 59 % 1011,6 hPa 0,0 l/m 0,0 km/h N 5,9 C 13,9 C 0,4 km/h
22.04.2016 22:00 12,6 C 61 % 1011,6 hPa 0,0 l/m 0,1 km/h N 5,2 C 12,6 C 1,6 km/h
22.04.2016 23:00 12,0 C 61 % 1011,5 hPa 0,0 l/m 0,0 km/h N 4,8 C 12,0 C 0,8 km/h
23.04.2016 00:00 10,6 C 65 % 1011,3 hPa 0,0 l/m 0,0 km/h N 4,2 C 10,6 C 0,4 km/h
23.04.2016 01:00 9,0 C 69 % 1010,8 hPa 0,0 l/m 0,0 km/h N 3,6 C 9,0 C 0,0 km/h
23.04.2016 02:00 8,1 C 74 % 1010,3 hPa 0,0 l/m 0,0 km/h N 3,8 C 8,1 C 0,0 km/h
23.04.2016 03:00 7,9 C 77 % 1009,8 hPa 0,0 l/m 0,0 km/h N 4,0 C 7,9 C 0,0 km/h
23.04.2016 04:00 7,5 C 78 % 1009,2 hPa 0,0 l/m 0,0 km/h N 3,8 C 7,5 C 0,0 km/h
23.04.2016 05:00 6,8 C 79 % 1008,6 hPa 0,0 l/m 0,0 km/h N 3,4 C 6,8 C 0,0 km/h
23.04.2016 06:00 6,8 C 81 % 1008,3 hPa 0,0 l/m 0,0 km/h N 3,7 C 6,8 C 0,4 km/h
23.04.2016 07:00 8,1 C 79 % 1008,1 hPa 0,0 l/m 0,0 km/h N 4,7 C 8,1 C 0,4 km/h
23.04.2016 08:00 9,6 C 70 % 1007,9 hPa 0,0 l/m 0,0 km/h N 4,5 C 9,6 C 0,0 km/h
23.04.2016 09:00 11,0 C 66 % 1007,5 hPa 0,0 l/m 0,0 km/h N 4,9 C 11,0 C 0,8 km/h
23.04.2016 10:00 11,6 C 61 % 1007,3 hPa 0,0 l/m 0,0 km/h N 4,3 C 11,6 C 0,8 km/h
23.04.2016 11:00 12,3 C 58 % 1007,1 hPa 0,0 l/m 0,0 km/h N 4,4 C 12,3 C 0,0 km/h
23.04.2016 12:00 13,8 C 57 % 1006,4 hPa 0,0 l/m 0,4 km/h N 5,3 C 13,8 C 5,2 km/h
23.04.2016 13:00 15,3 C 54 % 1005,7 hPa 0,0 l/m 0,9 km/h N 5,9 C 15,3 C 6,4 km/h
23.04.2016 14:00 16,8 C 48 % 1004,7 hPa 0,0 l/m 0,9 km/h N 5,6 C 16,8 C 6,8 km/h
23.04.2016 15:00 17,0 C 48 % 1004,0 hPa 0,0 l/m 0,6 km/h N 6,0 C 17,0 C 5,2 km/h
23.04.2016 16:00 16,6 C 52 % 1003,1 hPa 0,0 l/m 0,2 km/h N 6,5 C 16,6 C 4,4 km/h
23.04.2016 17:00 16,3 C 50 % 1002,7 hPa 0,0 l/m 0,1 km/h N 5,9 C 16,3 C 2,4 km/h
23.04.2016 18:00 16,0 C 52 % 1002,2 hPa 0,0 l/m 0,0 km/h N 6,2 C 16,0 C 1,2 km/h
23.04.2016 19:00 15,3 C 55 % 1002,0 hPa 0,0 l/m 0,0 km/h N 6,4 C 15,3 C 0,0 km/h
23.04.2016 20:00 13,6 C 62 % 1002,3 hPa 0,0 l/m 1,0 km/h N 6,4 C 13,6 C 7,3 km/h
23.04.2016 21:00 12,9 C 63 % 1002,5 hPa 0,0 l/m 1,0 km/h N 6,0 C 12,9 C 6,8 km/h
23.04.2016 22:00 12,1 C 69 % 1002,2 hPa 0,0 l/m 0,3 km/h N 6,5 C 12,1 C 5,2 km/h
23.04.2016 23:00 11,5 C 75 % 1001,7 hPa 0,0 l/m 0,8 km/h N 7,2 C 11,5 C 6,4 km/h
24.04.2016 00:00 11,0 C 78 % 1001,6 hPa 0,0 l/m 0,1 km/h N 7,3 C 11,0 C 3,2 km/h
24.04.2016 01:00 10,8 C 80 % 1002,0 hPa 0,5 l/m 1,8 km/h N 7,4 C 10,8 C 8,1 km/h
24.04.2016 02:00 8,9 C 82 % 1003,3 hPa 1,3 l/m 12,0 km/h N 6,0 C 5,4 C 29,8 km/h
24.04.2016 03:00 5,3 C 82 % 1005,3 hPa 0,5 l/m 13,6 km/h N 2,6 C 0,2 C 31,8 km/h
24.04.2016 04:00 4,1 C 83 % 1006,4 hPa 0,3 l/m 13,3 km/h N 1,5 C -1,0 C 32,6 km/h
24.04.2016 05:00 4,2 C 81 % 1006,9 hPa 0,0 l/m 11,7 km/h N 1,2 C 0,0 C 29,4 km/h
24.04.2016 06:00 4,4 C 79 % 1007,4 hPa 0,0 l/m 11,3 km/h N 1,0 C 0,6 C 27,8 km/h
24.04.2016 07:00 4,8 C 77 % 1008,0 hPa 0,0 l/m 11,3 km/h N 1,0 C 0,9 C 28,2 km/h
24.04.2016 08:00 5,1 C 73 % 1008,5 hPa 0,0 l/m 13,5 km/h N 0,6 C 0,1 C 31,4 km/h
24.04.2016 09:00 5,8 C 66 % 1008,8 hPa 0,0 l/m 14,8 km/h N 0,0 C 0,2 C 35,4 km/h
24.04.2016 10:00 6,5 C 60 % 1009,0 hPa 0,0 l/m 14,6 km/h N -0,8 C 1,2 C 37,0 km/h
24.04.2016 11:00 7,1 C 58 % 1008,9 hPa 0,0 l/m 16,2 km/h N -0,6 C 1,1 C 33,8 km/h
24.04.2016 12:00 7,3 C 59 % 1008,7 hPa 0,0 l/m 15,9 km/h N -0,2 C 1,5 C 33,8 km/h
24.04.2016 13:00 8,4 C 51 % 1008,3 hPa 0,0 l/m 16,1 km/h N -1,1 C 2,8 C 31,8 km/h
24.04.2016 14:00 8,5 C 47 % 1008,1 hPa 0,0 l/m 14,3 km/h N -2,3 C 3,6 C 34,6 km/h
24.04.2016 15:00 9,0 C 47 % 1007,8 hPa 0,0 l/m 12,1 km/h N -1,7 C 5,3 C 27,4 km/h
24.04.2016 16:00 8,6 C 49 % 1007,8 hPa 0,0 l/m 13,1 km/h N -1,6 C 4,4 C 30,2 km/h
24.04.2016 17:00 8,4 C 51 % 1007,7 hPa 0,0 l/m 10,1 km/h N -1,1 C 5,8 C 24,5 km/h
24.04.2016 18:00 8,1 C 49 % 1007,8 hPa 0,0 l/m 9,1 km/h N -2,0 C 6,1 C 22,5 km/h
24.04.2016 19:00 7,7 C 50 % 1007,9 hPa 0,0 l/m 7,9 km/h N -2,2 C 6,5 C 19,7 km/h
24.04.2016 20:00 7,1 C 52 % 1008,3 hPa 0,0 l/m 5,7 km/h N -2,1 C 7,1 C 16,5 km/h
24.04.2016 21:00 6,5 C 55 % 1008,7 hPa 0,0 l/m 4,9 km/h N -1,9 C 6,5 C 12,1 km/h
24.04.2016 22:00 6,1 C 59 % 1008,8 hPa 0,0 l/m 5,2 km/h N -1,2 C 6,1 C 14,9 km/h
24.04.2016 23:00 5,7 C 66 % 1008,7 hPa 0,0 l/m 7,9 km/h N -0,2 C 4,4 C 18,9 km/h
Min-Datum _ 21.04.16 20.04.16 24.04.16 - 20.04.16 - 24.04.16 24.04.16 20.04.16
_ Min-Zeit 06:15 16:15 00:00 - 20:00 - 14:15 04:15 20:00
Minimum _ 1,9 C 36 % 1001,5 hPa - 0,0 km/h - -2,6 C -2,2 C 0,0 km/h
Max-Datum _ 22.04.16 18.04.16 21.04.16 24.04.16 24.04.16 - 18.04.16 22.04.16 24.04.16
_ Max-Zeit 16:15 04:45 00:45 02:15 11:30 - 00:00 16:00 09:45
Maximum _ 20,1 C 83 % 1028,4 hPa 1,3 l/m 18,2 km/h
N
- 9,7 C 20,0 C 45,1 km/h
N
Durchschnitt _ 10,9 C 64 % 1016,4 hPa #8,1 l/m 4,8 km/h N 4,0 C 10,0 C 12,9 km/h